Flight Track Log - Related Links

Times and Time Zones

All times are in EST time to prevent confusion due to time zone crossing. See the DAL1117 flight status page for this flight to view local times or setup timezone preferences in your user account.

Time Position Orientation Groundspeed Altitude Reporting Facility
EST Latitude Longitude Course Direction KTS MPH feet Rate Location/Type
Thu 08:16:21 AM 27.9667 -82.5500 355° North 153 176 800  Level Tampa TRACON
Thu 08:16:57 AM 27.9333 -82.5500 180° South 179 206 1,700 2,125 Climbing Tampa TRACON
Thu 08:17:57 AM 27.9167 -82.6333 257° West 276 318 4,200 2,800 Climbing Tampa TRACON
Thu 08:18:57 AM 27.9500 -82.7000 300° West 299 344 7,300 2,239 Climbing Tampa TRACON
Thu 08:19:00 AM 28.3137 -82.5667 North  Level FlightAware Approximate
Thu 08:20:00 AM 28.4314 -82.5715 355° North  Level FlightAware Approximate
Thu 08:21:00 AM 28.5489 -82.5832 355° North  Level FlightAware Approximate
Thu 08:21:18 AM 28.1456 -82.6547 12° North 317 365 11,700  Level Jacksonville Center
Thu 08:22:18 AM 28.2581 -82.6169 16° North 353 406 14,000 2,350 Climbing Jacksonville Center
Thu 08:23:18 AM 28.3728 -82.5811 15° North 391 450 16,400 2,200 Climbing Jacksonville Center
Thu 08:24:18 AM 28.4939 -82.5808 360° North 417 480 18,400 1,800 Climbing Jacksonville Center
Thu 08:25:18 AM 28.6128 -82.5875 357° North 429 494 20,000 1,650 Climbing Jacksonville Center
Thu 08:26:18 AM 28.7381 -82.5967 356° North 440 506 21,700 1,750 Climbing Jacksonville Center
Thu 08:27:18 AM 28.8633 -82.6128 354° North 446 513 23,500 1,900 Climbing Jacksonville Center
Thu 08:28:18 AM 28.9908 -82.6314 353° North 451 519 25,500 1,950 Climbing Jacksonville Center
Thu 08:29:18 AM 29.1139 -82.6478 353° North 451 519 27,400 1,950 Climbing Jacksonville Center
Thu 08:30:18 AM 29.2372 -82.6664 352° North 445 512 29,400 1,650 Climbing Jacksonville Center
Thu 08:31:18 AM 29.3561 -82.6828 353° North 445 512 30,700 1,150 Climbing Jacksonville Center
Thu 08:32:18 AM 29.4772 -82.6897 357° North 440 506 31,700 950 Climbing Jacksonville Center
Thu 08:33:18 AM 29.5900 -82.6944 358° North 446 513 32,600 950 Climbing Jacksonville Center
Thu 08:34:18 AM 29.7111 -82.6917 North 436 502 33,600 950 Climbing Jacksonville Center
Thu 08:35:18 AM 29.8322 -82.6914 360° North 431 496 34,500 700 Climbing Jacksonville Center
Thu 08:36:18 AM 29.9531 -82.6911 360° North 431 496 35,000 250 Climbing Jacksonville Center
Thu 08:37:18 AM 30.0889 -82.6836 North 431 496 35,000  Level Jacksonville Center
Thu 08:38:18 AM 30.2119 -82.6833 360° North 436 502 35,000  Level Jacksonville Center
Thu 08:39:18 AM 30.3372 -82.6831 360° North 436 502 35,000  Level Jacksonville Center
Thu 08:40:18 AM 30.4606 -82.6806 North 436 502 35,000  Level Jacksonville Center
Thu 08:41:18 AM 30.5692 -82.6586 10° North 436 502 35,000  Level Jacksonville Center
Thu 08:42:18 AM 30.6881 -82.6003 23° Northeast 441 507 35,000  Level Jacksonville Center
Thu 08:43:18 AM 30.8069 -82.5419 23° Northeast 447 514 35,000  Level Jacksonville Center
Thu 08:44:18 AM 30.9256 -82.4858 22° Northeast 452 520 35,000  Level Jacksonville Center
Thu 08:45:18 AM 31.0425 -82.4269 23° Northeast 452 520 35,000 -50 Level Jacksonville Center
Thu 08:46:18 AM 31.1633 -82.3681 23° Northeast 457 526 34,900  Descending Jacksonville Center
Thu 08:47:18 AM 31.2819 -82.3092 23° Northeast 457 526 35,000 50 Climbing Jacksonville Center
Thu 08:48:18 AM 31.4008 -82.2525 22° Northeast 457 526 35,000  Level Jacksonville Center
Thu 08:49:18 AM 31.5175 -82.1981 22° Northeast 457 526 35,000  Level Jacksonville Center
Thu 08:50:18 AM 31.6486 -82.1286 24° Northeast 457 526 35,000  Level Jacksonville Center
Thu 08:51:18 AM 31.7567 -82.0764 22° Northeast 457 526 35,000  Level Jacksonville Center
Thu 08:52:18 AM 31.8858 -82.0117 23° Northeast 457 526 35,000  Level Jacksonville Center
Thu 08:53:18 AM 31.9878 -81.9494 27° Northeast 457 526 35,000  Level Jacksonville Center
Thu 08:54:18 AM 32.1017 -81.8428 38° Northeast 470 541 35,000  Level Jacksonville Center
Thu 08:55:18 AM 32.2050 -81.7411 40° Northeast 475 547 35,000  Level Jacksonville Center
Thu 08:56:18 AM 32.2961 -81.6489 41° Northeast 475 547 35,000  Level Jacksonville Center
Thu 08:57:18 AM 32.4078 -81.5417 39° Northeast 475 547 35,000  Level Jacksonville Center
Thu 08:58:18 AM 32.5089 -81.4392 41° Northeast 475 547 35,000  Level Jacksonville Center
Thu 08:59:18 AM 32.5997 -81.3489 40° Northeast 475 547 35,000  Level Jacksonville Center
Thu 09:00:18 AM 32.7008 -81.2461 41° Northeast 475 547 35,000  Level Jacksonville Center
Thu 09:01:18 AM 32.7994 -81.1453 41° Northeast 475 547 35,000 -50 Level Jacksonville Center
Thu 09:02:18 AM 32.9025 -81.0444 39° Northeast 475 547 34,900  Descending Jacksonville Center
Thu 09:03:18 AM 33.0031 -80.9383 41° Northeast 475 547 35,000  Climbing Jacksonville Center
Thu 09:04:18 AM 33.1039 -80.8344 41° Northeast 475 547 34,900  Descending Jacksonville Center
Thu 09:05:18 AM 33.2044 -80.7328 40° Northeast 475 547 35,000 50 Climbing Jacksonville Center
Thu 09:06:18 AM 33.3028 -80.6311 41° Northeast 475 547 35,000  Level Jacksonville Center
Thu 09:07:18 AM 33.4053 -80.5264 40° Northeast 475 547 35,000  Level Jacksonville Center
Thu 09:08:18 AM 33.5033 -80.4242 41° Northeast 475 547 35,000  Level Jacksonville Center
Thu 09:09:18 AM 33.6036 -80.3217 40° Northeast 475 547 35,000  Level Jacksonville Center
Thu 09:10:18 AM 33.7017 -80.2189 41° Northeast 475 547 35,000  Level Jacksonville Center
Thu 09:11:18 AM 33.8097 -80.1056 41° Northeast 475 547 35,000  Level Jacksonville Center
Thu 09:12:18 AM 33.9097 -80.0022 41° Northeast 475 547 35,000  Level Jacksonville Center
Thu 09:13:18 AM 34.0094 -79.8964 41° Northeast 475 547 35,000  Level Jacksonville Center
Thu 09:14:18 AM 34.1072 -79.7928 41° Northeast 475 547 35,000  Level Jacksonville Center
Thu 09:15:18 AM 34.2047 -79.6889 41° Northeast 475 547 35,000  Level Jacksonville Center
Thu 09:17:42 AM 34.4633 -79.5392 26° Northeast 443 510 35,000  Level Washington Center
Thu 09:18:43 AM 34.5886 -79.4744 23° Northeast 443 510 35,000  Level Washington Center
Thu 09:19:43 AM 34.6906 -79.4211 23° Northeast 443 510 35,000  Level Washington Center
Thu 09:20:44 AM 34.8136 -79.3586 23° Northeast 443 510 35,000  Level Washington Center
Thu 09:21:42 AM 34.9267 -79.2803 30° Northeast 443 510 35,000  Level Washington Center
Thu 09:22:42 AM 35.0333 -79.2042 30° Northeast 448 516 35,000  Level Washington Center
Thu 09:23:42 AM 35.1439 -79.1278 29° Northeast 448 516 35,000  Level Washington Center
Thu 09:24:43 AM 35.2569 -79.0461 31° Northeast 456 525 35,000  Level Washington Center
Thu 09:25:44 AM 35.3633 -78.9719 30° Northeast 449 517 35,000  Level Washington Center
Thu 09:26:44 AM 35.4614 -78.9019 30° Northeast 444 511 35,000  Level Washington Center
Thu 09:27:44 AM 35.5806 -78.8203 29° Northeast 449 517 35,000  Level Washington Center
Thu 09:28:42 AM 35.6889 -78.7503 28° Northeast 454 522 35,000  Level Washington Center
Thu 09:29:42 AM 35.7994 -78.6678 31° Northeast 445 512 35,000  Level Washington Center
Thu 09:30:44 AM 35.9081 -78.5847 32° Northeast 451 519 35,000  Level Washington Center
Thu 09:31:42 AM 36.0081 -78.5064 32° Northeast 463 533 35,000  Level Washington Center
Thu 09:32:42 AM 36.1158 -78.4408 26° Northeast 455 524 35,000  Level Washington Center
Thu 09:33:44 AM 36.2347 -78.3550 30° Northeast 450 518 35,000  Level Washington Center
Thu 09:34:44 AM 36.3344 -78.2839 30° Northeast 450 518 35,000  Level Washington Center
Thu 09:35:42 AM 36.4475 -78.1792 37° Northeast 455 524 35,000  Level Washington Center
Thu 09:36:43 AM 36.5517 -78.0844 36° Northeast 457 526 35,000  Level Washington Center
Thu 09:37:44 AM 36.6536 -77.9894 37° Northeast 462 532 35,000  Level Washington Center
Thu 09:38:42 AM 36.7578 -77.8889 38° Northeast 467 537 35,000  Level Washington Center
Thu 09:39:43 AM 36.8619 -77.7908 37° Northeast 467 537 35,000  Level Washington Center
Thu 09:40:44 AM 36.9617 -77.6947 38° Northeast 467 537 35,000  Level Washington Center
Thu 09:41:41 AM 37.0656 -77.5961 37° Northeast 467 537 35,000  Level Washington Center
Thu 09:42:42 AM 37.1694 -77.4972 37° Northeast 467 537 35,000  Level Washington Center
Thu 09:43:43 AM 37.2711 -77.3953 39° Northeast 467 537 35,000  Level Washington Center
Thu 09:44:43 AM 37.3747 -77.2983 37° Northeast 467 537 35,000  Level Washington Center
Thu 09:45:44 AM 37.4806 -77.1986 37° Northeast 467 537 35,000  Level Washington Center
Thu 09:46:44 AM 37.5861 -77.0933 38° Northeast 467 537 35,000  Level Washington Center
Thu 09:47:42 AM 37.6875 -76.9931 38° Northeast 467 537 35,000  Level Washington Center
Thu 09:48:43 AM 37.7886 -76.8925 38° Northeast 467 537 35,000  Level Washington Center
Thu 09:49:44 AM 37.8939 -76.7917 37° Northeast 467 537 35,000  Level Washington Center
Thu 09:50:42 AM 37.9950 -76.6906 38° Northeast 467 537 35,000  Level Washington Center
Thu 09:51:43 AM 38.0981 -76.5892 38° Northeast 467 537 35,000  Level Washington Center
Thu 09:52:43 AM 38.2011 -76.4847 39° Northeast 467 537 35,000  Level Washington Center
Thu 09:53:44 AM 38.3042 -76.3828 38° Northeast 467 537 35,000  Level Washington Center
Thu 09:54:42 AM 38.3964 -76.2989 35° Northeast 467 537 35,000  Level Washington Center
Thu 09:55:42 AM 38.5011 -76.2019 36° Northeast 462 532 35,000 -50 Level Washington Center
Thu 09:56:43 AM 38.6078 -76.1044 36° Northeast 456 525 34,900 -1,377 Descending Washington Center
Thu 09:57:44 AM 38.7125 -76.0067 36° Northeast 461 531 32,200 -3,174 Descending Washington Center
Thu 09:58:44 AM 38.8211 -75.9086 35° Northeast 461 531 28,500 -2,644 Descending Washington Center
Thu 09:59:42 AM 38.9339 -75.8025 36° Northeast 476 548 27,000 -814 Descending Washington Center
Thu 10:00:42 AM 39.0425 -75.6931 38° Northeast 489 563 26,900 -50 Descending Washington Center
Thu 10:01:42 AM 39.1531 -75.5917 35° Northeast 489 563 26,900 -942 Level Washington Center
Thu 10:02:43 AM 39.2633 -75.4869 36° Northeast 489 563 25,000 -2,262 Descending Washington Center
Thu 10:03:44 AM 39.3736 -75.3903 34° Northeast 484 557 22,300 -1,983 Descending Washington Center
Thu 10:04:44 AM 39.4797 -75.2958 34° Northeast 473 544 21,000 -1,538 Descending Washington Center
Thu 10:05:41 AM 39.5836 -75.2011 35° Northeast 468 539 19,300 -1,780 Descending Washington Center
Thu 10:06:42 AM 39.6939 -75.0981 36° Northeast 453 521 17,500 -1,686 Descending Washington Center
Thu 10:07:42 AM 39.7933 -75.0108 34° Northeast 436 502 15,900 -1,884 Descending Washington Center
Thu 10:08:43 AM 39.8825 -74.9397 31° Northeast 424 488 13,700 -2,029 Descending Washington Center
Thu 10:09:58 AM 40.0000 -74.7833 46° Northeast 407 468 11,300 -1,511 Descending New York TRACON
Thu 10:10:58 AM 40.0667 -74.6833 49° Northeast 405 466 10,300 -619 Descending New York TRACON
Thu 10:12:04 AM 40.1500 -74.5667 47° Northeast 375 432 10,000 -450 Descending New York TRACON
Thu 10:12:58 AM 40.2000 -74.5000 46° Northeast 315 362 9,400 -842 Descending New York TRACON
Thu 10:13:58 AM 40.2667 -74.4167 44° Northeast 274 315 8,400 -1,150 Descending New York TRACON
Thu 10:14:58 AM 40.3167 -74.3500 45° Northeast 260 299 7,100 -700 Descending New York TRACON
Thu 10:15:58 AM 40.3667 -74.3000 37° Northeast 253 291 7,000 -53 Descending New York TRACON
Thu 10:16:52 AM 40.4167 -74.2333 45° Northeast 253 291 7,000  Level New York TRACON
Thu 10:17:52 AM 40.4667 -74.1667 45° Northeast 252 290 7,000 -550 Level New York TRACON
Thu 10:18:52 AM 40.5167 -74.1000 45° Northeast 241 277 5,900 -1,350 Descending New York TRACON
Thu 10:19:52 AM 40.5667 -74.0500 37° Northeast 225 259 4,300 -1,600 Descending New York TRACON
Thu 10:20:52 AM 40.6167 -74.0167 27° Northeast 227 261 2,700 -900 Descending New York TRACON
Thu 10:21:52 AM 40.6667 -73.9667 37° Northeast 214 246 2,500 -100 Descending New York TRACON
Thu 10:22:52 AM 40.7000 -73.9333 37° Northeast 184 212 2,500 -313 Level New York TRACON
Thu 10:23:47 AM 40.7333 -73.8833 49° Northeast 155 178 1,900 -778 Descending New York TRACON
Thu 10:24:40 AM 40.7333 -73.8500 90° East 141 162 1,100 -857 Descending New York TRACON
Thu 10:25:46 AM 40.7667 -73.8500 360° North 137 158 200 -818 Descending New York TRACON

Login

Don't have an account? Register now (free) for customized features, flight alerts, and more!